createdAt,value
2024-01-03T00:00:39.670Z,928.4
2024-01-03T00:15:39.668Z,928.2
2024-01-03T00:30:40.216Z,929.1
2024-01-03T00:45:41.208Z,928.7
2024-01-03T01:00:42.111Z,928.6
2024-01-03T01:15:42.871Z,928.5
2024-01-03T01:30:43.503Z,929
2024-01-03T01:45:44.063Z,927.7
2024-01-03T02:00:45.400Z,926.8
2024-01-03T02:15:45.637Z,926
2024-01-03T02:30:47.155Z,923
2024-01-03T02:45:46.931Z,922.3
2024-01-03T03:00:49.063Z,922.4
2024-01-03T03:15:47.716Z,922.6
2024-01-03T03:30:48.597Z,921.3
2024-01-03T03:45:49.534Z,921
2024-01-03T04:00:50.699Z,924.3
2024-01-03T04:15:50.876Z,928.1
2024-01-03T04:30:53.255Z,928.8
2024-01-03T04:45:54.954Z,928.8
2024-01-03T05:00:53.600Z,929.2
2024-01-03T05:15:53.832Z,929.3
2024-01-03T05:30:54.785Z,929.5
2024-01-03T05:45:55.136Z,929.3
2024-01-03T06:00:56.704Z,929.3
2024-01-03T06:15:56.958Z,929.6
2024-01-03T06:30:58.989Z,929.1
2024-01-03T06:45:58.816Z,929.9
2024-01-03T07:00:59.744Z,930.2
2024-01-03T07:16:52.614Z,929.5
2024-01-03T07:31:53.003Z,929.7
2024-01-03T07:46:53.205Z,928.1
2024-01-03T08:01:54.058Z,927.1
2024-01-03T08:16:54.744Z,925.5
2024-01-03T08:46:56.248Z,922.6
2024-01-03T09:01:56.396Z,922.5
2024-01-03T09:16:58.134Z,921.9
2024-01-03T09:31:59.395Z,921.7
2024-01-03T09:46:58.580Z,921.3
2024-01-03T10:01:59.164Z,921.7
2024-01-03T10:17:00.233Z,920.9
2024-01-03T10:32:03.171Z,920.5
2024-01-03T10:47:01.234Z,920.5
2024-01-03T11:02:04.144Z,920.5
2024-01-03T11:17:04.543Z,920.3
2024-01-03T11:32:02.972Z,920.1
2024-01-03T11:47:03.699Z,920.1
2024-01-03T12:02:04.647Z,919.9
2024-01-03T12:17:07.714Z,919.9
2024-01-03T12:32:08.656Z,919.6
2024-01-03T12:47:07.095Z,919.1
2024-01-03T13:02:07.277Z,919
2024-01-03T13:17:07.147Z,919.1
2024-01-03T13:32:08.847Z,918.6
2024-01-03T13:47:09.110Z,918.5
2024-01-03T14:02:09.503Z,918.1
2024-01-03T14:17:10.570Z,918.2
2024-01-03T14:32:14.714Z,918.1
2024-01-03T14:47:11.678Z,917.7
2024-01-03T15:02:12.626Z,917.8
2024-01-03T15:17:13.883Z,917.7
2024-01-03T15:32:14.378Z,918.1
2024-01-03T15:47:14.118Z,918.1
2024-01-03T16:02:18.147Z,918.1
2024-01-03T16:17:15.555Z,918.3
2024-01-03T16:32:16.848Z,918
2024-01-03T16:47:17.463Z,918.2
2024-01-03T17:02:17.680Z,918
2024-01-03T17:17:19.576Z,918.1
2024-01-03T17:32:21.368Z,918.1
2024-01-03T17:47:23.859Z,917.8
2024-01-03T18:02:21.219Z,917.3
2024-01-03T18:17:21.646Z,917.2
2024-01-03T18:32:22.150Z,916.9
2024-01-03T18:47:28.451Z,917.1
2024-01-03T19:02:24.900Z,917.1
2024-01-03T19:17:31.659Z,917.7
2024-01-03T19:32:25.222Z,921.9
2024-01-03T19:47:26.451Z,920.7
2024-01-03T20:02:26.976Z,920.2
2024-01-03T20:17:29.363Z,920.6
2024-01-03T20:32:28.085Z,925
2024-01-03T20:47:29.925Z,928.7
2024-01-03T21:02:29.200Z,929.1
2024-01-03T21:17:34.506Z,928.9
2024-01-03T21:32:30.494Z,928.5
2024-01-03T21:47:32.358Z,927.6
2024-01-03T22:02:59.265Z,927.6
2024-01-03T22:17:34.126Z,921.7
2024-01-03T22:32:32.932Z,921.4
2024-01-03T22:47:34.260Z,923.9
2024-01-03T23:00:40.212Z,924.9
2024-01-03T23:15:37.187Z,921.7
2024-01-03T23:30:39.708Z,921.2
2024-01-03T23:45:39.172Z,920.3
